sensor_id;sensor_type;location;lat;lon;timestamp;P1;durP1;ratioP1;P2;durP2;ratioP2
50683;SDS011;36654;45.042;38.994;2022-11-20T00:01:41;27.42;;;16.10;;
50683;SDS011;36654;45.042;38.994;2022-11-20T00:04:08;25.90;;;15.20;;
50683;SDS011;36654;45.042;38.994;2022-11-20T00:06:33;33.65;;;16.17;;
50683;SDS011;36654;45.042;38.994;2022-11-20T00:08:59;27.15;;;14.43;;
50683;SDS011;36654;45.042;38.994;2022-11-20T00:11:27;25.48;;;15.38;;
50683;SDS011;36654;45.042;38.994;2022-11-20T00:13:54;24.67;;;15.30;;
50683;SDS011;36654;45.042;38.994;2022-11-20T00:16:25;26.17;;;14.90;;
50683;SDS011;36654;45.042;38.994;2022-11-20T00:18:52;28.48;;;14.75;;
50683;SDS011;36654;45.042;38.994;2022-11-20T00:21:21;26.40;;;14.40;;
50683;SDS011;36654;45.042;38.994;2022-11-20T00:23:52;26.90;;;16.10;;
50683;SDS011;36654;45.042;38.994;2022-11-20T00:26:20;26.00;;;14.70;;
50683;SDS011;36654;45.042;38.994;2022-11-20T00:28:51;26.20;;;15.57;;
50683;SDS011;36654;45.042;38.994;2022-11-20T00:31:21;27.30;;;14.35;;
50683;SDS011;36654;45.042;38.994;2022-11-20T00:33:47;23.33;;;14.30;;
50683;SDS011;36654;45.042;38.994;2022-11-20T00:36:14;24.63;;;15.93;;
50683;SDS011;36654;45.042;38.994;2022-11-20T00:38:45;21.23;;;13.98;;
50683;SDS011;36654;45.042;38.994;2022-11-20T00:41:15;25.77;;;13.57;;
50683;SDS011;36654;45.042;38.994;2022-11-20T00:43:41;23.67;;;14.02;;
50683;SDS011;36654;45.042;38.994;2022-11-20T00:46:08;24.02;;;14.77;;
50683;SDS011;36654;45.042;38.994;2022-11-20T00:48:44;24.48;;;13.27;;
50683;SDS011;36654;45.042;38.994;2022-11-20T00:51:11;25.38;;;13.68;;
50683;SDS011;36654;45.042;38.994;2022-11-20T00:53:38;21.15;;;12.90;;
50683;SDS011;36654;45.042;38.994;2022-11-20T00:56:05;27.13;;;14.15;;
50683;SDS011;36654;45.042;38.994;2022-11-20T00:58:33;23.65;;;13.63;;
50683;SDS011;36654;45.042;38.994;2022-11-20T01:01:01;23.13;;;12.82;;
50683;SDS011;36654;45.042;38.994;2022-11-20T01:03:28;22.65;;;13.27;;
50683;SDS011;36654;45.042;38.994;2022-11-20T01:06:02;22.10;;;13.65;;
50683;SDS011;36654;45.042;38.994;2022-11-20T01:08:30;20.95;;;12.98;;
50683;SDS011;36654;45.042;38.994;2022-11-20T01:11:00;21.42;;;12.88;;
50683;SDS011;36654;45.042;38.994;2022-11-20T01:13:37;23.15;;;12.95;;
50683;SDS011;36654;45.042;38.994;2022-11-20T01:16:04;23.45;;;13.98;;
50683;SDS011;36654;45.042;38.994;2022-11-20T01:18:33;25.05;;;13.43;;
50683;SDS011;36654;45.042;38.994;2022-11-20T01:21:00;24.55;;;13.27;;
50683;SDS011;36654;45.042;38.994;2022-11-20T01:23:34;22.45;;;12.95;;
50683;SDS011;36654;45.042;38.994;2022-11-20T01:26:05;22.40;;;13.68;;
50683;SDS011;36654;45.042;38.994;2022-11-20T01:28:33;20.30;;;12.98;;
50683;SDS011;36654;45.042;38.994;2022-11-20T01:30:59;22.63;;;12.48;;
50683;SDS011;36654;45.042;38.994;2022-11-20T01:33:25;22.33;;;13.07;;
50683;SDS011;36654;45.042;38.994;2022-11-20T01:35:51;23.73;;;13.35;;
50683;SDS011;36654;45.042;38.994;2022-11-20T01:38:17;19.95;;;12.38;;
50683;SDS011;36654;45.042;38.994;2022-11-20T01:40:45;22.45;;;12.27;;
50683;SDS011;36654;45.042;38.994;2022-11-20T01:43:16;22.77;;;13.10;;
50683;SDS011;36654;45.042;38.994;2022-11-20T01:45:50;25.77;;;13.95;;
50683;SDS011;36654;45.042;38.994;2022-11-20T01:48:24;24.88;;;13.23;;
50683;SDS011;36654;45.042;38.994;2022-11-20T01:50:53;23.08;;;12.23;;
50683;SDS011;36654;45.042;38.994;2022-11-20T01:53:21;22.58;;;13.25;;
50683;SDS011;36654;45.042;38.994;2022-11-20T01:55:54;22.75;;;12.25;;
50683;SDS011;36654;45.042;38.994;2022-11-20T01:58:23;20.20;;;12.75;;
50683;SDS011;36654;45.042;38.994;2022-11-20T02:00:54;18.38;;;12.30;;
50683;SDS011;36654;45.042;38.994;2022-11-20T02:03:20;20.13;;;12.90;;
50683;SDS011;36654;45.042;38.994;2022-11-20T02:05:57;21.55;;;13.02;;
50683;SDS011;36654;45.042;38.994;2022-11-20T02:08:24;23.50;;;12.32;;
50683;SDS011;36654;45.042;38.994;2022-11-20T02:10:50;22.83;;;11.50;;
50683;SDS011;36654;45.042;38.994;2022-11-20T02:13:16;19.98;;;12.27;;
50683;SDS011;36654;45.042;38.994;2022-11-20T02:16:00;22.15;;;12.40;;
50683;SDS011;36654;45.042;38.994;2022-11-20T02:18:26;22.65;;;11.85;;
50683;SDS011;36654;45.042;38.994;2022-11-20T02:20:59;23.95;;;12.80;;
50683;SDS011;36654;45.042;38.994;2022-11-20T02:26:18;23.67;;;12.32;;
50683;SDS011;36654;45.042;38.994;2022-11-20T02:28:46;23.33;;;12.07;;
50683;SDS011;36654;45.042;38.994;2022-11-20T02:31:12;21.75;;;12.32;;
50683;SDS011;36654;45.042;38.994;2022-11-20T02:33:37;23.27;;;12.75;;
50683;SDS011;36654;45.042;38.994;2022-11-20T02:36:03;23.00;;;12.85;;
50683;SDS011;36654;45.042;38.994;2022-11-20T02:38:29;23.60;;;12.10;;
50683;SDS011;36654;45.042;38.994;2022-11-20T02:40:55;24.58;;;12.25;;
50683;SDS011;36654;45.042;38.994;2022-11-20T02:43:21;24.45;;;12.95;;
50683;SDS011;36654;45.042;38.994;2022-11-20T02:45:47;20.70;;;11.98;;
50683;SDS011;36654;45.042;38.994;2022-11-20T02:48:13;22.35;;;13.38;;
50683;SDS011;36654;45.042;38.994;2022-11-20T02:50:40;23.85;;;12.45;;
50683;SDS011;36654;45.042;38.994;2022-11-20T02:53:05;20.40;;;11.77;;
50683;SDS011;36654;45.042;38.994;2022-11-20T02:55:32;22.42;;;11.93;;
50683;SDS011;36654;45.042;38.994;2022-11-20T02:57:57;23.35;;;13.27;;
50683;SDS011;36654;45.042;38.994;2022-11-20T03:00:23;24.48;;;12.13;;
50683;SDS011;36654;45.042;38.994;2022-11-20T03:02:48;20.67;;;11.65;;
50683;SDS011;36654;45.042;38.994;2022-11-20T03:05:14;24.75;;;11.38;;
50683;SDS011;36654;45.042;38.994;2022-11-20T03:07:40;21.85;;;11.88;;
50683;SDS011;36654;45.042;38.994;2022-11-20T03:10:05;17.30;;;10.35;;
50683;SDS011;36654;45.042;38.994;2022-11-20T03:12:31;22.58;;;11.07;;
50683;SDS011;36654;45.042;38.994;2022-11-20T03:14:57;21.88;;;11.10;;
50683;SDS011;36654;45.042;38.994;2022-11-20T03:17:22;17.95;;;11.35;;
50683;SDS011;36654;45.042;38.994;2022-11-20T03:19:48;20.00;;;12.35;;
50683;SDS011;36654;45.042;38.994;2022-11-20T03:22:14;21.52;;;11.65;;
50683;SDS011;36654;45.042;38.994;2022-11-20T03:24:40;27.15;;;12.45;;
50683;SDS011;36654;45.042;38.994;2022-11-20T03:27:05;20.08;;;11.50;;
50683;SDS011;36654;45.042;38.994;2022-11-20T03:29:31;27.63;;;13.40;;
50683;SDS011;36654;45.042;38.994;2022-11-20T03:31:57;24.98;;;12.55;;
50683;SDS011;36654;45.042;38.994;2022-11-20T03:34:23;23.05;;;13.43;;
50683;SDS011;36654;45.042;38.994;2022-11-20T03:36:48;22.75;;;12.02;;
50683;SDS011;36654;45.042;38.994;2022-11-20T03:39:14;18.67;;;11.80;;
50683;SDS011;36654;45.042;38.994;2022-11-20T03:41:40;20.13;;;13.45;;
50683;SDS011;36654;45.042;38.994;2022-11-20T03:44:08;21.35;;;12.88;;
50683;SDS011;36654;45.042;38.994;2022-11-20T03:46:35;23.75;;;12.52;;
50683;SDS011;36654;45.042;38.994;2022-11-20T03:49:01;26.00;;;12.20;;
50683;SDS011;36654;45.042;38.994;2022-11-20T03:51:32;21.45;;;10.90;;
50683;SDS011;36654;45.042;38.994;2022-11-20T03:54:01;20.58;;;11.30;;
50683;SDS011;36654;45.042;38.994;2022-11-20T03:58:56;19.02;;;10.43;;
50683;SDS011;36654;45.042;38.994;2022-11-20T04:01:23;19.15;;;10.38;;
50683;SDS011;36654;45.042;38.994;2022-11-20T04:03:54;16.20;;;9.75;;
50683;SDS011;36654;45.042;38.994;2022-11-20T04:06:22;17.95;;;12.45;;
50683;SDS011;36654;45.042;38.994;2022-11-20T04:08:53;26.23;;;12.35;;
50683;SDS011;36654;45.042;38.994;2022-11-20T04:11:24;23.60;;;12.80;;
50683;SDS011;36654;45.042;38.994;2022-11-20T04:13:52;27.17;;;13.00;;
50683;SDS011;36654;45.042;38.994;2022-11-20T04:16:25;22.38;;;12.02;;
50683;SDS011;36654;45.042;38.994;2022-11-20T04:18:54;27.90;;;14.13;;
50683;SDS011;36654;45.042;38.994;2022-11-20T04:21:22;25.58;;;13.95;;
50683;SDS011;36654;45.042;38.994;2022-11-20T04:23:49;23.88;;;14.07;;
50683;SDS011;36654;45.042;38.994;2022-11-20T04:26:15;26.45;;;12.75;;
50683;SDS011;36654;45.042;38.994;2022-11-20T04:28:41;25.75;;;12.95;;
50683;SDS011;36654;45.042;38.994;2022-11-20T04:31:11;23.52;;;12.88;;
50683;SDS011;36654;45.042;38.994;2022-11-20T04:33:39;25.00;;;11.82;;
50683;SDS011;36654;45.042;38.994;2022-11-20T04:36:06;25.58;;;11.75;;
50683;SDS011;36654;45.042;38.994;2022-11-20T04:38:36;23.40;;;12.75;;
50683;SDS011;36654;45.042;38.994;2022-11-20T04:41:03;23.55;;;11.85;;
50683;SDS011;36654;45.042;38.994;2022-11-20T04:43:30;23.58;;;12.55;;
50683;SDS011;36654;45.042;38.994;2022-11-20T04:45:57;28.48;;;13.95;;
50683;SDS011;36654;45.042;38.994;2022-11-20T04:48:24;20.90;;;12.90;;
50683;SDS011;36654;45.042;38.994;2022-11-20T04:50:51;25.85;;;13.18;;
50683;SDS011;36654;45.042;38.994;2022-11-20T04:53:17;24.95;;;15.35;;
50683;SDS011;36654;45.042;38.994;2022-11-20T04:55:44;26.83;;;15.20;;
50683;SDS011;36654;45.042;38.994;2022-11-20T04:58:09;22.75;;;14.07;;
50683;SDS011;36654;45.042;38.994;2022-11-20T05:00:35;29.55;;;15.13;;
50683;SDS011;36654;45.042;38.994;2022-11-20T05:03:01;29.33;;;15.20;;
50683;SDS011;36654;45.042;38.994;2022-11-20T05:05:26;33.28;;;14.88;;
50683;SDS011;36654;45.042;38.994;2022-11-20T05:07:52;25.40;;;14.90;;
50683;SDS011;36654;45.042;38.994;2022-11-20T05:10:17;24.67;;;13.65;;
50683;SDS011;36654;45.042;38.994;2022-11-20T05:12:43;26.30;;;14.70;;
50683;SDS011;36654;45.042;38.994;2022-11-20T05:15:09;26.70;;;13.73;;
50683;SDS011;36654;45.042;38.994;2022-11-20T05:17:35;26.58;;;14.35;;
50683;SDS011;36654;45.042;38.994;2022-11-20T05:20:00;26.60;;;14.73;;
50683;SDS011;36654;45.042;38.994;2022-11-20T05:22:26;24.13;;;14.50;;
50683;SDS011;36654;45.042;38.994;2022-11-20T05:24:52;24.23;;;14.80;;
50683;SDS011;36654;45.042;38.994;2022-11-20T05:27:17;28.40;;;15.73;;
50683;SDS011;36654;45.042;38.994;2022-11-20T05:29:43;30.08;;;17.50;;
50683;SDS011;36654;45.042;38.994;2022-11-20T05:32:08;29.67;;;16.35;;
50683;SDS011;36654;45.042;38.994;2022-11-20T05:34:35;28.58;;;16.25;;
50683;SDS011;36654;45.042;38.994;2022-11-20T05:37:01;32.05;;;17.17;;
50683;SDS011;36654;45.042;38.994;2022-11-20T05:39:28;30.48;;;17.00;;
50683;SDS011;36654;45.042;38.994;2022-11-20T05:41:53;32.28;;;16.42;;
50683;SDS011;36654;45.042;38.994;2022-11-20T05:44:37;28.08;;;15.82;;
50683;SDS011;36654;45.042;38.994;2022-11-20T05:47:03;29.60;;;16.65;;
50683;SDS011;36654;45.042;38.994;2022-11-20T05:49:29;29.20;;;16.55;;
50683;SDS011;36654;45.042;38.994;2022-11-20T05:51:54;31.10;;;16.30;;
50683;SDS011;36654;45.042;38.994;2022-11-20T05:54:20;32.90;;;17.58;;
50683;SDS011;36654;45.042;38.994;2022-11-20T05:56:46;27.45;;;17.17;;
50683;SDS011;36654;45.042;38.994;2022-11-20T05:59:11;30.60;;;16.85;;
50683;SDS011;36654;45.042;38.994;2022-11-20T06:01:37;30.45;;;16.35;;
50683;SDS011;36654;45.042;38.994;2022-11-20T06:04:02;29.25;;;16.45;;
50683;SDS011;36654;45.042;38.994;2022-11-20T06:06:28;29.85;;;17.65;;
50683;SDS011;36654;45.042;38.994;2022-11-20T06:08:54;33.58;;;19.70;;
50683;SDS011;36654;45.042;38.994;2022-11-20T06:11:20;30.30;;;18.05;;
50683;SDS011;36654;45.042;38.994;2022-11-20T06:13:46;33.03;;;17.33;;
50683;SDS011;36654;45.042;38.994;2022-11-20T06:16:13;32.67;;;17.73;;
50683;SDS011;36654;45.042;38.994;2022-11-20T06:18:40;33.00;;;18.13;;
50683;SDS011;36654;45.042;38.994;2022-11-20T06:21:10;33.38;;;17.92;;
50683;SDS011;36654;45.042;38.994;2022-11-20T06:23:37;35.53;;;19.25;;
50683;SDS011;36654;45.042;38.994;2022-11-20T06:26:07;32.75;;;17.58;;
50683;SDS011;36654;45.042;38.994;2022-11-20T06:28:34;36.75;;;17.17;;
50683;SDS011;36654;45.042;38.994;2022-11-20T06:31:00;30.25;;;15.63;;
50683;SDS011;36654;45.042;38.994;2022-11-20T06:33:27;36.08;;;17.58;;
50683;SDS011;36654;45.042;38.994;2022-11-20T06:35:55;24.85;;;15.77;;
50683;SDS011;36654;45.042;38.994;2022-11-20T06:38:22;30.00;;;17.00;;
50683;SDS011;36654;45.042;38.994;2022-11-20T06:40:48;30.85;;;15.98;;
50683;SDS011;36654;45.042;38.994;2022-11-20T06:43:14;30.52;;;16.33;;
50683;SDS011;36654;45.042;38.994;2022-11-20T06:45:39;29.08;;;15.20;;
50683;SDS011;36654;45.042;38.994;2022-11-20T06:48:05;26.25;;;15.63;;
50683;SDS011;36654;45.042;38.994;2022-11-20T06:50:31;32.88;;;16.70;;
50683;SDS011;36654;45.042;38.994;2022-11-20T06:52:59;25.65;;;15.65;;
50683;SDS011;36654;45.042;38.994;2022-11-20T06:55:26;30.65;;;14.50;;
50683;SDS011;36654;45.042;38.994;2022-11-20T06:57:51;26.05;;;14.38;;
50683;SDS011;36654;45.042;38.994;2022-11-20T07:00:17;26.38;;;14.38;;
50683;SDS011;36654;45.042;38.994;2022-11-20T07:02:43;24.40;;;14.93;;
50683;SDS011;36654;45.042;38.994;2022-11-20T07:05:09;29.10;;;17.15;;
50683;SDS011;36654;45.042;38.994;2022-11-20T07:07:34;24.15;;;14.98;;
50683;SDS011;36654;45.042;38.994;2022-11-20T07:10:00;26.83;;;14.25;;
50683;SDS011;36654;45.042;38.994;2022-11-20T07:12:25;28.38;;;14.35;;
50683;SDS011;36654;45.042;38.994;2022-11-20T07:14:51;25.92;;;14.57;;
50683;SDS011;36654;45.042;38.994;2022-11-20T07:17:17;26.65;;;15.18;;
50683;SDS011;36654;45.042;38.994;2022-11-20T07:19:42;34.20;;;18.05;;
50683;SDS011;36654;45.042;38.994;2022-11-20T07:22:08;27.70;;;16.27;;
50683;SDS011;36654;45.042;38.994;2022-11-20T07:24:34;25.42;;;15.98;;
50683;SDS011;36654;45.042;38.994;2022-11-20T07:27:00;24.88;;;14.65;;
50683;SDS011;36654;45.042;38.994;2022-11-20T07:29:25;33.10;;;17.73;;
50683;SDS011;36654;45.042;38.994;2022-11-20T07:31:51;25.88;;;15.07;;
50683;SDS011;36654;45.042;38.994;2022-11-20T07:34:17;26.95;;;16.27;;
50683;SDS011;36654;45.042;38.994;2022-11-20T07:36:42;24.48;;;13.73;;
50683;SDS011;36654;45.042;38.994;2022-11-20T07:39:08;21.67;;;13.57;;
50683;SDS011;36654;45.042;38.994;2022-11-20T07:41:33;25.58;;;12.85;;
50683;SDS011;36654;45.042;38.994;2022-11-20T07:43:59;30.92;;;18.48;;
50683;SDS011;36654;45.042;38.994;2022-11-20T07:46:25;30.95;;;17.42;;
50683;SDS011;36654;45.042;38.994;2022-11-20T07:48:51;32.50;;;17.58;;
50683;SDS011;36654;45.042;38.994;2022-11-20T07:51:17;28.65;;;16.85;;
50683;SDS011;36654;45.042;38.994;2022-11-20T07:53:42;25.98;;;16.60;;
50683;SDS011;36654;45.042;38.994;2022-11-20T07:56:08;24.52;;;16.27;;
50683;SDS011;36654;45.042;38.994;2022-11-20T07:58:34;23.63;;;13.98;;
50683;SDS011;36654;45.042;38.994;2022-11-20T08:01:03;26.35;;;14.32;;
50683;SDS011;36654;45.042;38.994;2022-11-20T08:03:32;28.75;;;15.30;;
50683;SDS011;36654;45.042;38.994;2022-11-20T08:05:59;29.50;;;15.75;;
50683;SDS011;36654;45.042;38.994;2022-11-20T08:08:28;24.27;;;14.95;;
50683;SDS011;36654;45.042;38.994;2022-11-20T08:10:54;23.20;;;14.15;;
50683;SDS011;36654;45.042;38.994;2022-11-20T08:13:42;25.30;;;14.82;;
50683;SDS011;36654;45.042;38.994;2022-11-20T08:16:26;27.38;;;13.95;;
50683;SDS011;36654;45.042;38.994;2022-11-20T08:18:52;27.05;;;14.00;;
50683;SDS011;36654;45.042;38.994;2022-11-20T08:21:17;24.40;;;14.10;;
50683;SDS011;36654;45.042;38.994;2022-11-20T08:23:43;27.08;;;14.70;;
50683;SDS011;36654;45.042;38.994;2022-11-20T08:26:09;27.40;;;14.77;;
50683;SDS011;36654;45.042;38.994;2022-11-20T08:28:34;26.70;;;14.80;;
50683;SDS011;36654;45.042;38.994;2022-11-20T08:31:00;25.48;;;14.10;;
50683;SDS011;36654;45.042;38.994;2022-11-20T08:33:27;29.83;;;14.77;;
50683;SDS011;36654;45.042;38.994;2022-11-20T08:35:53;30.08;;;16.25;;
50683;SDS011;36654;45.042;38.994;2022-11-20T08:38:18;28.13;;;13.07;;
50683;SDS011;36654;45.042;38.994;2022-11-20T08:40:44;27.15;;;15.00;;
50683;SDS011;36654;45.042;38.994;2022-11-20T08:43:32;34.70;;;14.82;;
50683;SDS011;36654;45.042;38.994;2022-11-20T08:45:58;25.88;;;14.65;;
50683;SDS011;36654;45.042;38.994;2022-11-20T08:48:24;26.83;;;14.10;;
50683;SDS011;36654;45.042;38.994;2022-11-20T08:50:49;27.02;;;14.40;;
50683;SDS011;36654;45.042;38.994;2022-11-20T08:53:15;27.80;;;13.95;;
50683;SDS011;36654;45.042;38.994;2022-11-20T08:55:40;32.55;;;14.48;;
50683;SDS011;36654;45.042;38.994;2022-11-20T08:58:06;30.75;;;16.23;;
50683;SDS011;36654;45.042;38.994;2022-11-20T09:00:32;25.60;;;14.80;;
50683;SDS011;36654;45.042;38.994;2022-11-20T09:02:58;24.67;;;13.73;;
50683;SDS011;36654;45.042;38.994;2022-11-20T09:05:26;25.98;;;15.00;;
50683;SDS011;36654;45.042;38.994;2022-11-20T09:07:51;27.73;;;14.55;;
50683;SDS011;36654;45.042;38.994;2022-11-20T09:10:20;25.10;;;14.75;;
50683;SDS011;36654;45.042;38.994;2022-11-20T09:12:48;26.42;;;15.77;;
50683;SDS011;36654;45.042;38.994;2022-11-20T09:15:14;27.33;;;15.48;;
50683;SDS011;36654;45.042;38.994;2022-11-20T09:17:40;30.42;;;15.50;;
50683;SDS011;36654;45.042;38.994;2022-11-20T09:20:05;25.65;;;16.00;;
50683;SDS011;36654;45.042;38.994;2022-11-20T09:25:31;27.02;;;14.75;;
50683;SDS011;36654;45.042;38.994;2022-11-20T09:27:57;23.42;;;14.18;;
50683;SDS011;36654;45.042;38.994;2022-11-20T09:30:23;31.13;;;17.80;;
50683;SDS011;36654;45.042;38.994;2022-11-20T09:32:49;53.53;;;27.48;;
50683;SDS011;36654;45.042;38.994;2022-11-20T09:35:15;32.60;;;16.27;;
50683;SDS011;36654;45.042;38.994;2022-11-20T09:37:42;34.50;;;18.33;;
50683;SDS011;36654;45.042;38.994;2022-11-20T09:40:16;28.20;;;15.25;;
50683;SDS011;36654;45.042;38.994;2022-11-20T09:51:53;40.58;;;24.20;;
50683;SDS011;36654;45.042;38.994;2022-11-20T09:54:30;32.53;;;17.23;;
50683;SDS011;36654;45.042;38.994;2022-11-20T09:57:01;29.00;;;15.38;;
50683;SDS011;36654;45.042;38.994;2022-11-20T10:01:56;28.50;;;15.52;;
50683;SDS011;36654;45.042;38.994;2022-11-20T10:04:24;24.77;;;14.88;;
50683;SDS011;36654;45.042;38.994;2022-11-20T10:09:27;28.42;;;14.45;;
50683;SDS011;36654;45.042;38.994;2022-11-20T10:23:28;26.35;;;15.27;;
50683;SDS011;36654;45.042;38.994;2022-11-20T10:26:03;23.63;;;14.07;;
50683;SDS011;36654;45.042;38.994;2022-11-20T10:31:12;18.05;;;11.82;;
50683;SDS011;36654;45.042;38.994;2022-11-20T10:33:52;23.73;;;12.00;;
50683;SDS011;36654;45.042;38.994;2022-11-20T10:38:54;33.60;;;18.15;;
50683;SDS011;36654;45.042;38.994;2022-11-20T10:41:27;25.23;;;13.45;;
50683;SDS011;36654;45.042;38.994;2022-11-20T10:46:39;20.02;;;11.57;;
50683;SDS011;36654;45.042;38.994;2022-11-20T10:49:15;19.10;;;10.98;;
50683;SDS011;36654;45.042;38.994;2022-11-20T10:51:47;24.58;;;11.20;;
50683;SDS011;36654;45.042;38.994;2022-11-20T10:54:43;23.45;;;11.65;;
50683;SDS011;36654;45.042;38.994;2022-11-20T10:57:42;23.33;;;10.57;;
50683;SDS011;36654;45.042;38.994;2022-11-20T11:00:10;17.60;;;11.07;;
50683;SDS011;36654;45.042;38.994;2022-11-20T11:07:50;20.42;;;10.73;;
50683;SDS011;36654;45.042;38.994;2022-11-20T11:13:06;22.95;;;11.68;;
50683;SDS011;36654;45.042;38.994;2022-11-20T11:15:40;23.05;;;12.38;;
50683;SDS011;36654;45.042;38.994;2022-11-20T11:18:10;20.50;;;11.80;;
50683;SDS011;36654;45.042;38.994;2022-11-20T11:20:36;23.45;;;12.73;;
50683;SDS011;36654;45.042;38.994;2022-11-20T11:23:02;20.55;;;11.00;;
50683;SDS011;36654;45.042;38.994;2022-11-20T11:25:30;24.65;;;12.60;;
50683;SDS011;36654;45.042;38.994;2022-11-20T11:28:04;26.98;;;13.38;;
50683;SDS011;36654;45.042;38.994;2022-11-20T11:30:45;22.02;;;12.98;;
50683;SDS011;36654;45.042;38.994;2022-11-20T11:35:53;20.73;;;12.70;;
50683;SDS011;36654;45.042;38.994;2022-11-20T11:38:27;26.05;;;13.65;;
50683;SDS011;36654;45.042;38.994;2022-11-20T11:40:54;21.85;;;12.40;;
50683;SDS011;36654;45.042;38.994;2022-11-20T11:43:22;18.30;;;11.52;;
50683;SDS011;36654;45.042;38.994;2022-11-20T11:46:25;20.15;;;11.88;;
50683;SDS011;36654;45.042;38.994;2022-11-20T11:49:01;21.55;;;11.80;;
50683;SDS011;36654;45.042;38.994;2022-11-20T11:51:41;20.52;;;11.45;;
50683;SDS011;36654;45.042;38.994;2022-11-20T11:54:20;21.73;;;12.05;;
50683;SDS011;36654;45.042;38.994;2022-11-20T11:56:50;21.38;;;11.80;;
50683;SDS011;36654;45.042;38.994;2022-11-20T11:59:28;18.70;;;12.63;;
50683;SDS011;36654;45.042;38.994;2022-11-20T12:02:12;26.52;;;13.35;;
50683;SDS011;36654;45.042;38.994;2022-11-20T12:04:53;20.50;;;12.40;;
50683;SDS011;36654;45.042;38.994;2022-11-20T12:10:18;22.52;;;12.98;;
50683;SDS011;36654;45.042;38.994;2022-11-20T12:12:55;25.65;;;13.02;;
50683;SDS011;36654;45.042;38.994;2022-11-20T12:15:32;21.40;;;12.63;;
50683;SDS011;36654;45.042;38.994;2022-11-20T12:17:59;29.05;;;14.60;;
50683;SDS011;36654;45.042;38.994;2022-11-20T12:20:30;21.17;;;13.20;;
50683;SDS011;36654;45.042;38.994;2022-11-20T12:25:43;25.45;;;13.10;;
50683;SDS011;36654;45.042;38.994;2022-11-20T12:50:41;32.45;;;15.50;;
50683;SDS011;36654;45.042;38.994;2022-11-20T13:07:35;29.27;;;15.38;;
50683;SDS011;36654;45.042;38.994;2022-11-20T13:10:01;21.38;;;14.65;;
50683;SDS011;36654;45.042;38.994;2022-11-20T13:12:45;29.48;;;15.20;;
50683;SDS011;36654;45.042;38.994;2022-11-20T13:18:04;32.53;;;16.50;;
50683;SDS011;36654;45.042;38.994;2022-11-20T13:20:33;25.58;;;13.90;;
50683;SDS011;36654;45.042;38.994;2022-11-20T13:23:01;28.10;;;15.20;;
50683;SDS011;36654;45.042;38.994;2022-11-20T13:25:30;26.23;;;13.57;;
50683;SDS011;36654;45.042;38.994;2022-11-20T13:28:01;24.63;;;13.95;;
50683;SDS011;36654;45.042;38.994;2022-11-20T13:30:35;19.80;;;10.52;;
50683;SDS011;36654;45.042;38.994;2022-11-20T13:33:04;17.02;;;9.95;;
50683;SDS011;36654;45.042;38.994;2022-11-20T13:35:59;22.58;;;9.02;;
50683;SDS011;36654;45.042;38.994;2022-11-20T13:38:26;22.45;;;9.82;;
50683;SDS011;36654;45.042;38.994;2022-11-20T13:43:36;17.10;;;8.18;;
50683;SDS011;36654;45.042;38.994;2022-11-20T13:46:06;19.13;;;9.48;;
50683;SDS011;36654;45.042;38.994;2022-11-20T13:48:55;17.38;;;7.60;;
50683;SDS011;36654;45.042;38.994;2022-11-20T13:51:40;19.98;;;8.88;;
50683;SDS011;36654;45.042;38.994;2022-11-20T14:00:03;15.50;;;7.80;;
50683;SDS011;36654;45.042;38.994;2022-11-20T14:02:52;12.38;;;7.40;;
50683;SDS011;36654;45.042;38.994;2022-11-20T14:05:30;16.48;;;9.20;;
50683;SDS011;36654;45.042;38.994;2022-11-20T14:08:02;12.60;;;6.55;;
50683;SDS011;36654;45.042;38.994;2022-11-20T15:13:45;14.77;;;7.93;;
50683;SDS011;36654;45.042;38.994;2022-11-20T15:16:17;15.38;;;8.52;;
50683;SDS011;36654;45.042;38.994;2022-11-20T15:18:45;12.48;;;7.10;;
50683;SDS011;36654;45.042;38.994;2022-11-20T15:21:12;15.45;;;7.90;;
50683;SDS011;36654;45.042;38.994;2022-11-20T15:23:40;15.10;;;8.10;;
50683;SDS011;36654;45.042;38.994;2022-11-20T15:26:06;15.80;;;6.88;;
50683;SDS011;36654;45.042;38.994;2022-11-20T15:28:34;9.32;;;6.93;;
50683;SDS011;36654;45.042;38.994;2022-11-20T15:31:02;15.15;;;8.40;;
50683;SDS011;36654;45.042;38.994;2022-11-20T15:33:29;13.25;;;6.97;;
50683;SDS011;36654;45.042;38.994;2022-11-20T15:35:55;17.23;;;7.70;;
50683;SDS011;36654;45.042;38.994;2022-11-20T15:38:20;14.95;;;7.97;;
50683;SDS011;36654;45.042;38.994;2022-11-20T15:40:46;17.48;;;8.93;;
50683;SDS011;36654;45.042;38.994;2022-11-20T15:43:12;13.23;;;8.23;;
50683;SDS011;36654;45.042;38.994;2022-11-20T15:45:41;14.90;;;7.95;;
50683;SDS011;36654;45.042;38.994;2022-11-20T15:53:23;13.68;;;6.60;;
50683;SDS011;36654;45.042;38.994;2022-11-20T15:55:52;9.60;;;6.72;;
50683;SDS011;36654;45.042;38.994;2022-11-20T16:01:39;12.05;;;6.30;;
50683;SDS011;36654;45.042;38.994;2022-11-20T16:04:09;15.60;;;6.70;;
50683;SDS011;36654;45.042;38.994;2022-11-20T16:06:36;14.15;;;6.20;;
50683;SDS011;36654;45.042;38.994;2022-11-20T16:09:01;14.10;;;7.15;;
50683;SDS011;36654;45.042;38.994;2022-11-20T16:11:27;12.60;;;6.20;;
50683;SDS011;36654;45.042;38.994;2022-11-20T16:13:53;10.52;;;6.07;;
50683;SDS011;36654;45.042;38.994;2022-11-20T16:16:37;7.95;;;4.82;;
50683;SDS011;36654;45.042;38.994;2022-11-20T16:19:05;10.80;;;5.60;;
50683;SDS011;36654;45.042;38.994;2022-11-20T16:21:33;10.65;;;5.82;;
50683;SDS011;36654;45.042;38.994;2022-11-20T16:24:00;9.25;;;4.90;;
50683;SDS011;36654;45.042;38.994;2022-11-20T16:26:28;7.72;;;5.03;;
50683;SDS011;36654;45.042;38.994;2022-11-20T16:28:54;9.23;;;6.07;;
50683;SDS011;36654;45.042;38.994;2022-11-20T16:31:20;7.15;;;5.13;;
50683;SDS011;36654;45.042;38.994;2022-11-20T16:33:50;7.85;;;5.18;;
50683;SDS011;36654;45.042;38.994;2022-11-20T16:36:17;6.70;;;4.80;;
50683;SDS011;36654;45.042;38.994;2022-11-20T16:38:44;11.40;;;5.35;;
50683;SDS011;36654;45.042;38.994;2022-11-20T16:41:16;10.10;;;5.35;;
50683;SDS011;36654;45.042;38.994;2022-11-20T16:43:45;8.75;;;5.32;;
50683;SDS011;36654;45.042;38.994;2022-11-20T16:46:13;13.10;;;6.63;;
50683;SDS011;36654;45.042;38.994;2022-11-20T16:48:39;7.38;;;5.07;;
50683;SDS011;36654;45.042;38.994;2022-11-20T16:51:07;11.00;;;5.53;;
50683;SDS011;36654;45.042;38.994;2022-11-20T16:53:35;7.95;;;5.85;;
50683;SDS011;36654;45.042;38.994;2022-11-20T16:56:12;7.65;;;5.15;;
50683;SDS011;36654;45.042;38.994;2022-11-20T16:58:42;10.75;;;4.93;;
50683;SDS011;36654;45.042;38.994;2022-11-20T17:01:09;9.90;;;5.90;;
50683;SDS011;36654;45.042;38.994;2022-11-20T17:03:37;11.30;;;5.93;;
50683;SDS011;36654;45.042;38.994;2022-11-20T17:06:13;12.30;;;6.03;;
50683;SDS011;36654;45.042;38.994;2022-11-20T17:08:43;15.55;;;6.32;;
50683;SDS011;36654;45.042;38.994;2022-11-20T17:11:11;13.27;;;6.45;;
50683;SDS011;36654;45.042;38.994;2022-11-20T17:13:38;14.75;;;6.70;;
50683;SDS011;36654;45.042;38.994;2022-11-20T17:16:05;19.35;;;6.43;;
50683;SDS011;36654;45.042;38.994;2022-11-20T17:18:32;10.55;;;5.95;;